createdAt,value
2022-10-05T00:04:28.459Z,52.94
2022-10-05T00:09:35.015Z,53.07
2022-10-05T00:14:35.995Z,53.11
2022-10-05T00:19:35.217Z,53.30
2022-10-05T00:24:40.253Z,53.28
2022-10-05T00:29:38.632Z,53.53
2022-10-05T00:34:37.741Z,53.79
2022-10-05T00:39:36.972Z,53.81
2022-10-05T00:44:43.246Z,53.98
2022-10-05T00:50:18.873Z,54.00
2022-10-05T00:55:24.270Z,54.14
2022-10-05T01:00:24.583Z,54.11
2022-10-05T01:05:34.231Z,54.54
2022-10-05T01:10:41.473Z,54.75
2022-10-05T01:15:51.524Z,54.84
2022-10-05T01:21:12.027Z,55.02
2022-10-05T01:26:35.639Z,55.24
2022-10-05T01:31:40.222Z,55.26
2022-10-05T01:36:45.741Z,55.35
2022-10-05T01:41:50.158Z,55.48
2022-10-05T01:46:58.367Z,55.70
2022-10-05T01:52:09.327Z,55.87
2022-10-05T01:57:17.151Z,55.98
2022-10-05T02:02:23.666Z,55.81
2022-10-05T02:07:30.942Z,56.05
2022-10-05T02:12:33.009Z,56.25
2022-10-05T02:17:41.925Z,56.21
2022-10-05T02:22:43.831Z,56.32
2022-10-05T02:27:49.217Z,56.42
2022-10-05T02:32:54.143Z,56.54
2022-10-05T02:38:08.015Z,56.71
2022-10-05T02:43:19.599Z,56.71
2022-10-05T02:48:31.247Z,56.80
2022-10-05T02:53:37.799Z,56.82
2022-10-05T02:58:45.982Z,57.26
2022-10-05T03:03:53.286Z,57.18
2022-10-05T03:08:59.837Z,57.16
2022-10-05T03:14:05.853Z,57.31
2022-10-05T03:19:17.150Z,57.55
2022-10-05T03:24:34.842Z,57.55
2022-10-05T03:29:40.385Z,57.64
2022-10-05T03:34:48.728Z,57.73
2022-10-05T03:39:51.903Z,57.77
2022-10-05T03:45:00.148Z,57.87
2022-10-05T03:50:23.452Z,57.99
2022-10-05T03:55:33.217Z,58.00
2022-10-05T04:00:34.802Z,58.09
2022-10-05T04:05:41.167Z,58.25
2022-10-05T04:10:44.070Z,58.18
2022-10-05T04:15:46.342Z,58.31
2022-10-05T04:20:46.954Z,58.34
2022-10-05T04:25:50.454Z,58.37
2022-10-05T04:30:52.199Z,58.44
2022-10-05T04:36:32.795Z,58.36
2022-10-05T04:41:56.252Z,58.28
2022-10-05T04:47:24.459Z,58.19
2022-10-05T04:52:39.553Z,58.40
2022-10-05T04:57:58.678Z,58.48
2022-10-05T05:03:27.285Z,58.45
2022-10-05T05:14:28.824Z,58.52
2022-10-05T05:19:40.359Z,58.60
2022-10-05T05:24:56.970Z,58.30
2022-10-05T05:30:04.074Z,58.45
2022-10-05T05:35:33.706Z,58.02
2022-10-05T05:40:36.281Z,58.18
2022-10-05T05:45:44.802Z,58.10
2022-10-05T05:50:55.931Z,58.26
2022-10-05T05:56:01.187Z,58.18
2022-10-05T06:01:20.257Z,58.09
2022-10-05T06:06:30.504Z,57.85
2022-10-05T06:11:32.997Z,57.98
2022-10-05T06:16:37.098Z,58.01
2022-10-05T06:21:44.992Z,57.85
2022-10-05T06:27:19.112Z,57.63
2022-10-05T06:32:26.247Z,57.84
2022-10-05T06:37:38.607Z,57.54
2022-10-05T06:43:03.676Z,56.66
2022-10-05T06:48:11.921Z,54.07
2022-10-05T06:53:59.876Z,48.67
2022-10-05T06:59:09.927Z,42.97
2022-10-05T07:04:21.708Z,39.13
2022-10-05T07:09:31.612Z,36.35
2022-10-05T07:15:01.972Z,32.90
2022-10-05T07:20:08.571Z,30.06
2022-10-05T07:25:14.996Z,28.25
2022-10-05T07:30:15.603Z,27.95
2022-10-05T07:35:38.933Z,25.65
2022-10-05T07:40:47.243Z,25.53
2022-10-05T07:45:51.890Z,24.60
2022-10-05T07:51:02.260Z,22.83
2022-10-05T07:56:07.411Z,22.42
2022-10-05T08:01:23.147Z,21.80
2022-10-05T08:06:51.144Z,20.94
2022-10-05T08:12:08.850Z,20.98
2022-10-05T08:17:31.482Z,20.47
2022-10-05T08:22:46.188Z,20.19
2022-10-05T08:27:54.597Z,19.62
2022-10-05T08:33:07.323Z,20.15
2022-10-05T08:38:13.256Z,20.23
2022-10-05T08:44:12.269Z,19.81
2022-10-05T08:49:50.468Z,20.29
2022-10-05T08:55:07.519Z,19.64
2022-10-05T09:00:11.546Z,19.18
2022-10-05T09:05:44.225Z,19.87
2022-10-05T09:11:01.932Z,20.47
2022-10-05T09:16:35.593Z,20.78
2022-10-05T09:22:03.889Z,19.84
2022-10-05T09:27:10.194Z,20.56
2022-10-05T09:32:43.922Z,20.47
2022-10-05T09:38:41.627Z,21.04
2022-10-05T09:44:28.717Z,21.30
2022-10-05T09:50:07.867Z,21.27
2022-10-05T09:55:30.535Z,21.54
2022-10-05T10:00:35.767Z,23.09
2022-10-05T10:06:35.332Z,22.45
2022-10-05T10:11:53.472Z,22.81
2022-10-05T10:17:30.230Z,23.21
2022-10-05T10:23:24.845Z,24.22
2022-10-05T10:29:03.483Z,25.32
2022-10-05T10:34:38.078Z,26.01
2022-10-05T10:40:11.722Z,26.99
2022-10-05T10:45:26.251Z,27.37
2022-10-05T10:51:05.664Z,27.88
2022-10-05T10:56:39.845Z,28.34
2022-10-05T11:02:01.666Z,29.49
2022-10-05T11:07:36.853Z,29.71
2022-10-05T11:13:28.263Z,29.92
2022-10-05T11:18:41.298Z,30.25
2022-10-05T11:24:38.164Z,30.22
2022-10-05T11:30:02.810Z,31.11
2022-10-05T11:35:37.006Z,30.80
2022-10-05T11:41:25.613Z,30.87
2022-10-05T11:46:52.390Z,32.13
2022-10-05T11:52:03.946Z,32.49
2022-10-05T12:02:47.644Z,30.99
2022-10-05T12:08:40.575Z,31.96
2022-10-05T12:13:47.329Z,32.42
2022-10-05T12:19:42.146Z,32.87
2022-10-05T12:25:01.784Z,33.86
2022-10-05T12:30:12.380Z,33.58
2022-10-05T12:35:43.899Z,33.43
2022-10-05T12:40:51.053Z,33.50
2022-10-05T12:46:17.989Z,33.87
2022-10-05T12:51:26.523Z,31.58
2022-10-05T12:56:54.788Z,32.10
2022-10-05T13:02:01.922Z,32.10
2022-10-05T13:07:32.099Z,31.87
2022-10-05T13:12:44.284Z,33.12
2022-10-05T13:17:51.285Z,33.41
2022-10-05T13:22:59.881Z,33.12
2022-10-05T13:28:21.779Z,33.26
2022-10-05T13:34:16.898Z,33.10
2022-10-05T13:45:43.133Z,32.92
2022-10-05T13:50:48.356Z,33.02
2022-10-05T14:01:43.051Z,31.91
2022-10-05T14:06:44.651Z,33.18
2022-10-05T14:11:53.195Z,33.77
2022-10-05T14:17:00.996Z,34.43
2022-10-05T14:22:31.544Z,33.76
2022-10-05T14:27:36.164Z,33.65
2022-10-05T14:32:56.173Z,33.74
2022-10-05T14:37:59.789Z,34.76
2022-10-05T14:43:08.860Z,33.96
2022-10-05T14:48:11.050Z,35.21
2022-10-05T14:54:19.253Z,35.86
2022-10-05T14:59:35.076Z,36.07
2022-10-05T15:04:49.406Z,36.52
2022-10-05T15:10:01.531Z,36.71
2022-10-05T15:15:26.670Z,36.84
2022-10-05T15:20:36.678Z,37.14
2022-10-05T15:26:08.749Z,37.87
2022-10-05T15:32:00.921Z,37.95
2022-10-05T15:38:10.225Z,38.65
2022-10-05T15:43:24.110Z,38.53
2022-10-05T15:48:29.323Z,38.61
2022-10-05T15:53:47.192Z,38.84
2022-10-05T15:59:17.620Z,38.66
2022-10-05T16:04:26.165Z,39.26
2022-10-05T16:10:10.575Z,40.48
2022-10-05T16:21:36.321Z,42.23
2022-10-05T16:39:04.922Z,43.78
2022-10-05T16:44:33.343Z,44.46
2022-10-05T16:49:52.073Z,45.01
2022-10-05T16:55:06.441Z,45.55
2022-10-05T17:01:04.378Z,45.92
2022-10-05T17:06:35.146Z,46.56
2022-10-05T17:11:59.767Z,46.99
2022-10-05T17:17:51.909Z,47.15
2022-10-05T17:29:15.544Z,47.85
2022-10-05T17:34:33.860Z,48.25
2022-10-05T17:39:51.304Z,48.45
2022-10-05T17:45:07.667Z,48.46
2022-10-05T17:51:05.638Z,48.84
2022-10-05T17:57:16.333Z,49.03
2022-10-05T18:02:49.642Z,49.47
2022-10-05T18:08:41.420Z,49.53
2022-10-05T18:13:49.180Z,49.77
2022-10-05T18:19:00.563Z,49.82
2022-10-05T18:24:23.536Z,50.30
2022-10-05T18:30:11.097Z,50.21
2022-10-05T18:36:56.647Z,50.53
2022-10-05T18:42:24.138Z,50.76
2022-10-05T18:47:34.667Z,50.78
2022-10-05T18:53:28.419Z,50.73
2022-10-05T18:58:52.124Z,50.87
2022-10-05T19:04:14.387Z,50.91
2022-10-05T19:09:26.385Z,50.63
2022-10-05T19:14:34.901Z,50.40
2022-10-05T19:19:57.605Z,50.38
2022-10-05T19:31:18.221Z,49.69
2022-10-05T19:36:41.976Z,49.16
2022-10-05T19:42:09.025Z,49.74
2022-10-05T19:47:21.927Z,49.77
2022-10-05T19:52:30.917Z,49.98
2022-10-05T20:03:50.549Z,50.36
2022-10-05T20:08:57.644Z,50.47
2022-10-05T20:14:19.354Z,50.40
2022-10-05T20:20:04.676Z,50.61
2022-10-05T20:25:13.334Z,50.69
2022-10-05T20:30:14.725Z,50.71
2022-10-05T20:35:29.540Z,51.07
2022-10-05T20:40:29.647Z,51.37
2022-10-05T20:46:22.658Z,51.60
2022-10-05T20:51:24.529Z,51.89
2022-10-05T20:56:28.491Z,52.07
2022-10-05T21:01:31.259Z,52.13
2022-10-05T21:06:30.402Z,52.28
2022-10-05T21:11:30.372Z,52.48
2022-10-05T21:16:30.698Z,52.57
2022-10-05T21:21:30.424Z,52.75
2022-10-05T21:26:28.558Z,52.89
2022-10-05T21:31:29.121Z,53.11
2022-10-05T21:36:31.863Z,53.26
2022-10-05T21:41:36.614Z,53.29
2022-10-05T21:47:15.163Z,53.67
2022-10-05T21:52:20.688Z,53.77
2022-10-05T21:57:22.555Z,53.99
2022-10-05T22:02:19.617Z,54.01
2022-10-05T22:07:19.396Z,54.22
2022-10-05T22:12:19.290Z,54.38
2022-10-05T22:17:24.333Z,54.79
2022-10-05T22:22:22.142Z,54.66
2022-10-05T22:27:43.469Z,55.05
2022-10-05T22:32:44.394Z,55.12
2022-10-05T22:38:18.939Z,55.02
2022-10-05T22:43:18.555Z,55.05
2022-10-05T22:48:16.577Z,55.09
2022-10-05T22:53:14.788Z,54.99
2022-10-05T22:58:12.524Z,55.14
2022-10-05T23:03:10.557Z,55.06
2022-10-05T23:08:09.288Z,55.08
2022-10-05T23:13:07.033Z,55.17
2022-10-05T23:18:04.477Z,55.51
2022-10-05T23:23:05.612Z,55.27
2022-10-05T23:28:04.727Z,55.32
2022-10-05T23:33:16.496Z,55.23
2022-10-05T23:38:37.030Z,55.28
2022-10-05T23:43:37.708Z,55.30
2022-10-05T23:48:37.514Z,55.24
2022-10-05T23:53:35.595Z,55.32
2022-10-05T23:58:53.254Z,55.39
